sensor_id;sensor_type;location;lat;lon;timestamp;pressure;altitude;pressure_sealevel;temperature;humidity
34374;BME280;20637;55.770;37.592;2024-01-10T00:01:32;98500.63;;;-2.14;84.92
34374;BME280;20637;55.770;37.592;2024-01-10T00:03:57;98492.38;;;-2.10;84.97
34374;BME280;20637;55.770;37.592;2024-01-10T00:06:23;98500.06;;;-2.07;84.76
34374;BME280;20637;55.770;37.592;2024-01-10T00:08:49;98496.13;;;-2.01;85.07
34374;BME280;20637;55.770;37.592;2024-01-10T00:11:15;98493.09;;;-1.97;84.65
34374;BME280;20637;55.770;37.592;2024-01-10T00:13:40;98479.75;;;-1.95;84.86
34374;BME280;20637;55.770;37.592;2024-01-10T00:16:06;98482.06;;;-1.90;85.33
34374;BME280;20637;55.770;37.592;2024-01-10T00:18:32;98474.47;;;-1.84;85.22
34374;BME280;20637;55.770;37.592;2024-01-10T00:20:57;98480.97;;;-1.77;85.18
34374;BME280;20637;55.770;37.592;2024-01-10T00:23:23;98475.34;;;-1.72;85.44
34374;BME280;20637;55.770;37.592;2024-01-10T00:25:49;98474.03;;;-1.67;85.02
34374;BME280;20637;55.770;37.592;2024-01-10T00:28:15;98477.13;;;-1.62;85.12
34374;BME280;20637;55.770;37.592;2024-01-10T00:30:46;98475.94;;;-1.58;84.69
34374;BME280;20637;55.770;37.592;2024-01-10T00:33:15;98480.03;;;-1.54;85.19
34374;BME280;20637;55.770;37.592;2024-01-10T00:35:41;98476.91;;;-1.48;85.44
34374;BME280;20637;55.770;37.592;2024-01-10T00:38:06;98493.75;;;-1.49;84.99
34374;BME280;20637;55.770;37.592;2024-01-10T00:40:32;98486.28;;;-1.43;85.61
34374;BME280;20637;55.770;37.592;2024-01-10T00:42:57;98483.88;;;-1.35;85.41
34374;BME280;20637;55.770;37.592;2024-01-10T00:45:23;98478.78;;;-1.27;85.33
34374;BME280;20637;55.770;37.592;2024-01-10T00:47:49;98480.13;;;-1.22;85.80
34374;BME280;20637;55.770;37.592;2024-01-10T00:50:15;98485.06;;;-1.17;85.48
34374;BME280;20637;55.770;37.592;2024-01-10T00:52:42;98484.53;;;-1.11;85.48
34374;BME280;20637;55.770;37.592;2024-01-10T00:55:08;98478.88;;;-1.07;85.88
34374;BME280;20637;55.770;37.592;2024-01-10T00:57:33;98492.59;;;-1.02;85.80
34374;BME280;20637;55.770;37.592;2024-01-10T00:59:59;98491.25;;;-0.96;85.57
34374;BME280;20637;55.770;37.592;2024-01-10T01:02:25;98490.88;;;-0.91;85.36
34374;BME280;20637;55.770;37.592;2024-01-10T01:04:50;98501.72;;;-0.83;85.94
34374;BME280;20637;55.770;37.592;2024-01-10T01:07:15;98508.34;;;-0.78;85.84
34374;BME280;20637;55.770;37.592;2024-01-10T01:09:41;98508.91;;;-0.74;85.33
34374;BME280;20637;55.770;37.592;2024-01-10T01:12:06;98507.81;;;-0.72;85.12
34374;BME280;20637;55.770;37.592;2024-01-10T01:14:32;98517.19;;;-0.68;85.65
34374;BME280;20637;55.770;37.592;2024-01-10T01:16:58;98509.13;;;-0.66;85.19
34374;BME280;20637;55.770;37.592;2024-01-10T01:19:23;98520.59;;;-0.66;85.50
34374;BME280;20637;55.770;37.592;2024-01-10T01:21:49;98512.38;;;-0.63;85.34
34374;BME280;20637;55.770;37.592;2024-01-10T01:24:14;98508.50;;;-0.59;85.23
34374;BME280;20637;55.770;37.592;2024-01-10T01:26:40;98512.72;;;-0.56;85.43
34374;BME280;20637;55.770;37.592;2024-01-10T01:29:05;98519.44;;;-0.52;84.64
34374;BME280;20637;55.770;37.592;2024-01-10T01:31:31;98527.28;;;-0.51;84.96
34374;BME280;20637;55.770;37.592;2024-01-10T01:33:57;98535.94;;;-0.49;84.94
34374;BME280;20637;55.770;37.592;2024-01-10T01:36:22;98530.88;;;-0.52;84.67
34374;BME280;20637;55.770;37.592;2024-01-10T01:38:48;98519.69;;;-0.55;84.79
34374;BME280;20637;55.770;37.592;2024-01-10T01:41:14;98531.53;;;-0.59;84.90
34374;BME280;20637;55.770;37.592;2024-01-10T01:43:40;98564.28;;;-0.60;84.20
34374;BME280;20637;55.770;37.592;2024-01-10T01:46:06;98558.13;;;-0.61;84.31
34374;BME280;20637;55.770;37.592;2024-01-10T01:48:31;98555.47;;;-0.61;83.89
34374;BME280;20637;55.770;37.592;2024-01-10T01:51:00;98569.31;;;-0.57;83.61
34374;BME280;20637;55.770;37.592;2024-01-10T01:53:27;98582.34;;;-0.54;83.68
34374;BME280;20637;55.770;37.592;2024-01-10T01:55:57;98591.38;;;-0.57;83.24
34374;BME280;20637;55.770;37.592;2024-01-10T01:58:24;98597.16;;;-0.52;83.17
34374;BME280;20637;55.770;37.592;2024-01-10T02:00:50;98614.97;;;-0.54;82.50
34374;BME280;20637;55.770;37.592;2024-01-10T02:03:16;98636.09;;;-0.63;82.25
34374;BME280;20637;55.770;37.592;2024-01-10T02:05:42;98617.81;;;-0.77;82.53
34374;BME280;20637;55.770;37.592;2024-01-10T02:08:08;98641.88;;;-1.03;82.17
34374;BME280;20637;55.770;37.592;2024-01-10T02:10:34;98647.53;;;-1.18;82.08
34374;BME280;20637;55.770;37.592;2024-01-10T02:13:00;98671.84;;;-1.24;81.97
34374;BME280;20637;55.770;37.592;2024-01-10T02:15:26;98680.47;;;-1.33;81.66
34374;BME280;20637;55.770;37.592;2024-01-10T02:18:11;98689.09;;;-1.42;81.78
34374;BME280;20637;55.770;37.592;2024-01-10T02:20:40;98700.88;;;-1.47;82.13
34374;BME280;20637;55.770;37.592;2024-01-10T02:23:07;98706.31;;;-1.48;81.63
34374;BME280;20637;55.770;37.592;2024-01-10T02:25:34;98700.88;;;-1.47;81.71
34374;BME280;20637;55.770;37.592;2024-01-10T02:28:00;98711.25;;;-1.43;81.91
34374;BME280;20637;55.770;37.592;2024-01-10T02:30:25;98721.25;;;-1.47;81.57
34374;BME280;20637;55.770;37.592;2024-01-10T02:32:51;98729.00;;;-1.57;80.88
34374;BME280;20637;55.770;37.592;2024-01-10T02:35:16;98733.41;;;-1.68;80.92
34374;BME280;20637;55.770;37.592;2024-01-10T02:37:42;98759.00;;;-1.69;80.89
34374;BME280;20637;55.770;37.592;2024-01-10T02:40:08;98760.53;;;-1.77;80.29
34374;BME280;20637;55.770;37.592;2024-01-10T02:42:35;98766.59;;;-1.88;80.01
34374;BME280;20637;55.770;37.592;2024-01-10T02:45:01;98767.41;;;-1.99;79.42
34374;BME280;20637;55.770;37.592;2024-01-10T02:47:26;98813.13;;;-2.09;78.65
34374;BME280;20637;55.770;37.592;2024-01-10T02:49:53;98798.66;;;-2.16;77.70
34374;BME280;20637;55.770;37.592;2024-01-10T02:52:18;98804.69;;;-2.27;77.29
34374;BME280;20637;55.770;37.592;2024-01-10T02:54:45;98823.41;;;-2.30;77.10
34374;BME280;20637;55.770;37.592;2024-01-10T02:57:12;98837.47;;;-2.29;77.34
34374;BME280;20637;55.770;37.592;2024-01-10T02:59:37;98832.72;;;-2.37;76.90
34374;BME280;20637;55.770;37.592;2024-01-10T03:02:03;98847.41;;;-2.46;76.52
34374;BME280;20637;55.770;37.592;2024-01-10T03:04:29;98836.97;;;-2.60;75.89
34374;BME280;20637;55.770;37.592;2024-01-10T03:06:54;98849.09;;;-2.70;75.74
34374;BME280;20637;55.770;37.592;2024-01-10T03:09:22;98853.09;;;-2.77;75.96
34374;BME280;20637;55.770;37.592;2024-01-10T03:11:47;98869.06;;;-2.78;75.95
34374;BME280;20637;55.770;37.592;2024-01-10T03:14:13;98868.44;;;-2.82;76.04
34374;BME280;20637;55.770;37.592;2024-01-10T03:16:38;98873.72;;;-2.82;76.21
34374;BME280;20637;55.770;37.592;2024-01-10T03:19:04;98895.03;;;-2.85;76.04
34374;BME280;20637;55.770;37.592;2024-01-10T03:21:29;98914.47;;;-2.86;75.72
34374;BME280;20637;55.770;37.592;2024-01-10T03:23:56;98912.03;;;-2.89;76.28
34374;BME280;20637;55.770;37.592;2024-01-10T03:26:22;98927.88;;;-2.89;76.07
34374;BME280;20637;55.770;37.592;2024-01-10T03:28:48;98931.66;;;-2.93;75.21
34374;BME280;20637;55.770;37.592;2024-01-10T03:31:14;98956.97;;;-3.03;75.95
34374;BME280;20637;55.770;37.592;2024-01-10T03:33:40;98947.72;;;-3.23;75.00
34374;BME280;20637;55.770;37.592;2024-01-10T03:36:06;98962.09;;;-3.41;74.65
34374;BME280;20637;55.770;37.592;2024-01-10T03:38:32;98969.28;;;-3.57;74.56
34374;BME280;20637;55.770;37.592;2024-01-10T03:40:57;98978.31;;;-3.61;74.41
34374;BME280;20637;55.770;37.592;2024-01-10T03:43:23;98994.06;;;-3.60;75.61
34374;BME280;20637;55.770;37.592;2024-01-10T03:45:49;99002.72;;;-3.58;75.05
34374;BME280;20637;55.770;37.592;2024-01-10T03:48:14;99003.56;;;-3.57;75.38
34374;BME280;20637;55.770;37.592;2024-01-10T03:50:40;99020.78;;;-3.66;75.40
34374;BME280;20637;55.770;37.592;2024-01-10T03:53:05;99031.28;;;-3.78;74.81
34374;BME280;20637;55.770;37.592;2024-01-10T03:55:31;99055.44;;;-4.00;74.17
34374;BME280;20637;55.770;37.592;2024-01-10T03:57:57;99065.47;;;-4.21;73.88
34374;BME280;20637;55.770;37.592;2024-01-10T04:00:22;99072.72;;;-4.40;74.41
34374;BME280;20637;55.770;37.592;2024-01-10T04:02:48;99094.34;;;-4.49;74.00
34374;BME280;20637;55.770;37.592;2024-01-10T04:05:13;99106.50;;;-4.62;73.32
34374;BME280;20637;55.770;37.592;2024-01-10T04:07:40;99132.34;;;-4.69;73.43
34374;BME280;20637;55.770;37.592;2024-01-10T04:10:10;99137.84;;;-4.73;72.98
34374;BME280;20637;55.770;37.592;2024-01-10T04:12:36;99149.75;;;-4.82;73.75
34374;BME280;20637;55.770;37.592;2024-01-10T04:15:05;99159.75;;;-4.89;73.54
34374;BME280;20637;55.770;37.592;2024-01-10T04:17:32;99167.22;;;-4.97;73.00
34374;BME280;20637;55.770;37.592;2024-01-10T04:19:58;99181.13;;;-5.10;73.00
34374;BME280;20637;55.770;37.592;2024-01-10T04:22:24;99193.91;;;-5.20;72.05
34374;BME280;20637;55.770;37.592;2024-01-10T04:24:50;99192.72;;;-5.30;72.57
34374;BME280;20637;55.770;37.592;2024-01-10T04:27:16;99203.69;;;-5.39;72.14
34374;BME280;20637;55.770;37.592;2024-01-10T04:29:42;99210.28;;;-5.48;72.68
34374;BME280;20637;55.770;37.592;2024-01-10T04:32:07;99218.34;;;-5.51;72.45
34374;BME280;20637;55.770;37.592;2024-01-10T04:34:33;99234.81;;;-5.47;72.11
34374;BME280;20637;55.770;37.592;2024-01-10T04:36:59;99252.53;;;-5.51;72.56
34374;BME280;20637;55.770;37.592;2024-01-10T04:39:24;99269.38;;;-5.55;72.11
34374;BME280;20637;55.770;37.592;2024-01-10T04:41:50;99261.19;;;-5.66;72.41
34374;BME280;20637;55.770;37.592;2024-01-10T04:44:15;99269.88;;;-5.83;72.30
34374;BME280;20637;55.770;37.592;2024-01-10T04:46:41;99286.16;;;-5.92;71.57
34374;BME280;20637;55.770;37.592;2024-01-10T04:49:07;99291.16;;;-6.04;71.98
34374;BME280;20637;55.770;37.592;2024-01-10T04:51:33;99287.03;;;-6.10;71.70
34374;BME280;20637;55.770;37.592;2024-01-10T04:53:58;99294.13;;;-6.12;72.04
34374;BME280;20637;55.770;37.592;2024-01-10T04:56:25;99314.59;;;-6.18;71.42
34374;BME280;20637;55.770;37.592;2024-01-10T04:58:50;99313.91;;;-6.22;71.36
34374;BME280;20637;55.770;37.592;2024-01-10T05:01:16;99319.41;;;-6.28;71.10
34374;BME280;20637;55.770;37.592;2024-01-10T05:03:42;99335.69;;;-6.39;70.83
34374;BME280;20637;55.770;37.592;2024-01-10T05:06:07;99347.03;;;-6.57;71.10
34374;BME280;20637;55.770;37.592;2024-01-10T05:08:33;99354.19;;;-6.60;71.11
34374;BME280;20637;55.770;37.592;2024-01-10T05:10:58;99354.75;;;-6.54;71.28
34374;BME280;20637;55.770;37.592;2024-01-10T05:13:24;99359.28;;;-6.57;71.24
34374;BME280;20637;55.770;37.592;2024-01-10T05:15:49;99367.38;;;-6.62;71.18
34374;BME280;20637;55.770;37.592;2024-01-10T05:18:16;99376.25;;;-6.64;71.10
34374;BME280;20637;55.770;37.592;2024-01-10T05:20:42;99389.56;;;-6.69;71.09
34374;BME280;20637;55.770;37.592;2024-01-10T05:23:07;99390.75;;;-6.76;70.66
34374;BME280;20637;55.770;37.592;2024-01-10T05:25:33;99404.84;;;-6.79;70.95
34374;BME280;20637;55.770;37.592;2024-01-10T05:27:59;99406.59;;;-6.79;70.63
34374;BME280;20637;55.770;37.592;2024-01-10T05:30:25;99413.97;;;-6.87;70.72
34374;BME280;20637;55.770;37.592;2024-01-10T05:32:50;99414.50;;;-6.99;70.40
34374;BME280;20637;55.770;37.592;2024-01-10T05:35:16;99433.78;;;-7.00;70.59
34374;BME280;20637;55.770;37.592;2024-01-10T05:37:41;99435.69;;;-7.04;70.56
34374;BME280;20637;55.770;37.592;2024-01-10T05:40:07;99431.16;;;-7.00;70.24
34374;BME280;20637;55.770;37.592;2024-01-10T05:42:33;99438.75;;;-6.94;70.60
34374;BME280;20637;55.770;37.592;2024-01-10T05:45:00;99448.06;;;-6.87;70.94
34374;BME280;20637;55.770;37.592;2024-01-10T05:47:28;99455.69;;;-6.81;70.71
34374;BME280;20637;55.770;37.592;2024-01-10T05:49:54;99456.28;;;-6.75;70.38
34374;BME280;20637;55.770;37.592;2024-01-10T05:52:20;99473.44;;;-6.66;70.82
34374;BME280;20637;55.770;37.592;2024-01-10T05:54:47;99479.59;;;-6.67;70.77
34374;BME280;20637;55.770;37.592;2024-01-10T05:57:14;99475.56;;;-6.76;70.90
34374;BME280;20637;55.770;37.592;2024-01-10T05:59:40;99497.41;;;-6.75;70.48
34374;BME280;20637;55.770;37.592;2024-01-10T06:02:05;99485.34;;;-6.79;70.79
34374;BME280;20637;55.770;37.592;2024-01-10T06:04:31;99506.34;;;-6.79;70.72
34374;BME280;20637;55.770;37.592;2024-01-10T06:06:58;99513.50;;;-6.83;70.25
34374;BME280;20637;55.770;37.592;2024-01-10T06:09:24;99524.94;;;-6.84;70.26
34374;BME280;20637;55.770;37.592;2024-01-10T06:11:49;99540.22;;;-6.95;70.44
34374;BME280;20637;55.770;37.592;2024-01-10T06:14:15;99541.47;;;-7.03;69.87
34374;BME280;20637;55.770;37.592;2024-01-10T06:16:41;99549.22;;;-7.00;70.13
34374;BME280;20637;55.770;37.592;2024-01-10T06:19:07;99563.19;;;-7.00;70.20
34374;BME280;20637;55.770;37.592;2024-01-10T06:21:32;99564.28;;;-7.05;69.76
34374;BME280;20637;55.770;37.592;2024-01-10T06:23:58;99574.91;;;-7.08;70.32
34374;BME280;20637;55.770;37.592;2024-01-10T06:26:23;99579.47;;;-7.13;69.92
34374;BME280;20637;55.770;37.592;2024-01-10T06:28:49;99588.31;;;-7.16;69.97
34374;BME280;20637;55.770;37.592;2024-01-10T06:31:14;99600.56;;;-7.16;70.08
34374;BME280;20637;55.770;37.592;2024-01-10T06:33:40;99599.97;;;-7.23;69.83
34374;BME280;20637;55.770;37.592;2024-01-10T06:36:05;99607.19;;;-7.30;69.88
34374;BME280;20637;55.770;37.592;2024-01-10T06:38:31;99609.81;;;-7.30;70.06
34374;BME280;20637;55.770;37.592;2024-01-10T06:40:56;99625.50;;;-7.28;70.08
34374;BME280;20637;55.770;37.592;2024-01-10T06:43:22;99634.97;;;-7.24;70.07
34374;BME280;20637;55.770;37.592;2024-01-10T06:45:49;99630.56;;;-7.24;69.67
34374;BME280;20637;55.770;37.592;2024-01-10T06:48:14;99638.44;;;-7.24;70.06
34374;BME280;20637;55.770;37.592;2024-01-10T06:50:40;99630.56;;;-7.24;69.86
34374;BME280;20637;55.770;37.592;2024-01-10T06:53:06;99643.69;;;-7.24;69.99
34374;BME280;20637;55.770;37.592;2024-01-10T06:55:31;99652.47;;;-7.25;69.47
34374;BME280;20637;55.770;37.592;2024-01-10T06:57:57;99647.44;;;-7.31;69.17
34374;BME280;20637;55.770;37.592;2024-01-10T07:00:23;99647.66;;;-7.37;69.77
34374;BME280;20637;55.770;37.592;2024-01-10T07:02:49;99651.44;;;-7.44;69.32
34374;BME280;20637;55.770;37.592;2024-01-10T07:05:14;99662.06;;;-7.48;69.45
34374;BME280;20637;55.770;37.592;2024-01-10T07:07:41;99661.22;;;-7.49;69.20
34374;BME280;20637;55.770;37.592;2024-01-10T07:10:07;99664.22;;;-7.59;68.98
34374;BME280;20637;55.770;37.592;2024-01-10T07:12:35;99667.09;;;-7.65;68.42
34374;BME280;20637;55.770;37.592;2024-01-10T07:15:01;99680.31;;;-7.68;68.68
34374;BME280;20637;55.770;37.592;2024-01-10T07:17:30;99680.31;;;-7.68;68.76
34374;BME280;20637;55.770;37.592;2024-01-10T07:19:55;99683.72;;;-7.66;69.46
34374;BME280;20637;55.770;37.592;2024-01-10T07:22:22;99697.44;;;-7.60;68.87
34374;BME280;20637;55.770;37.592;2024-01-10T07:24:48;99698.16;;;-7.55;69.20
34374;BME280;20637;55.770;37.592;2024-01-10T07:27:14;99714.34;;;-7.44;69.27
34374;BME280;20637;55.770;37.592;2024-01-10T07:29:40;99710.75;;;-7.41;68.84
34374;BME280;20637;55.770;37.592;2024-01-10T07:32:07;99717.88;;;-7.45;69.23
34374;BME280;20637;55.770;37.592;2024-01-10T07:34:37;99712.97;;;-7.54;68.42
34374;BME280;20637;55.770;37.592;2024-01-10T07:37:03;99714.94;;;-7.60;68.42
34374;BME280;20637;55.770;37.592;2024-01-10T07:39:29;99728.41;;;-7.71;68.75
34374;BME280;20637;55.770;37.592;2024-01-10T07:41:54;99734.03;;;-7.82;69.09
34374;BME280;20637;55.770;37.592;2024-01-10T07:44:20;99739.63;;;-7.92;68.56
34374;BME280;20637;55.770;37.592;2024-01-10T07:46:46;99734.09;;;-8.09;68.30
34374;BME280;20637;55.770;37.592;2024-01-10T07:49:11;99744.84;;;-8.19;68.49
34374;BME280;20637;55.770;37.592;2024-01-10T07:51:37;99742.44;;;-8.25;68.01
34374;BME280;20637;55.770;37.592;2024-01-10T07:54:03;99749.34;;;-8.22;68.16
34374;BME280;20637;55.770;37.592;2024-01-10T07:56:28;99750.19;;;-8.22;68.16
34374;BME280;20637;55.770;37.592;2024-01-10T07:58:55;99749.28;;;-8.21;68.76
34374;BME280;20637;55.770;37.592;2024-01-10T08:01:21;99754.28;;;-8.13;69.25
34374;BME280;20637;55.770;37.592;2024-01-10T08:03:46;99763.53;;;-8.03;68.72
34374;BME280;20637;55.770;37.592;2024-01-10T08:06:12;99756.56;;;-8.02;68.59
34374;BME280;20637;55.770;37.592;2024-01-10T08:08:39;99755.75;;;-8.04;69.27
34374;BME280;20637;55.770;37.592;2024-01-10T08:11:04;99755.69;;;-8.03;68.39
34374;BME280;20637;55.770;37.592;2024-01-10T08:13:31;99763.22;;;-7.92;69.23
34374;BME280;20637;55.770;37.592;2024-01-10T08:15:56;99772.78;;;-7.91;68.40
34374;BME280;20637;55.770;37.592;2024-01-10T08:18:23;99763.53;;;-8.03;68.77
34374;BME280;20637;55.770;37.592;2024-01-10T08:20:48;99767.59;;;-8.19;68.14
34374;BME280;20637;55.770;37.592;2024-01-10T08:23:14;99769.53;;;-8.26;68.76
34374;BME280;20637;55.770;37.592;2024-01-10T08:25:39;99773.00;;;-8.25;68.13
34374;BME280;20637;55.770;37.592;2024-01-10T08:28:06;99769.34;;;-8.20;69.00
34374;BME280;20637;55.770;37.592;2024-01-10T08:30:32;99764.34;;;-8.27;68.70
34374;BME280;20637;55.770;37.592;2024-01-10T08:33:00;99765.53;;;-8.36;68.53
34374;BME280;20637;55.770;37.592;2024-01-10T08:35:26;99772.34;;;-8.30;69.37
34374;BME280;20637;55.770;37.592;2024-01-10T08:37:52;99777.09;;;-8.16;68.61
34374;BME280;20637;55.770;37.592;2024-01-10T08:40:17;99769.78;;;-8.07;68.30
34374;BME280;20637;55.770;37.592;2024-01-10T08:42:44;99773.84;;;-7.97;69.38
34374;BME280;20637;55.770;37.592;2024-01-10T08:45:10;99778.00;;;-7.91;69.12
34374;BME280;20637;55.770;37.592;2024-01-10T08:47:37;99774.19;;;-7.81;68.26
34374;BME280;20637;55.770;37.592;2024-01-10T08:50:04;99774.69;;;-7.70;68.42
34374;BME280;20637;55.770;37.592;2024-01-10T08:52:31;99781.41;;;-7.61;68.42
34374;BME280;20637;55.770;37.592;2024-01-10T08:54:57;99780.44;;;-7.59;68.89
34374;BME280;20637;55.770;37.592;2024-01-10T08:57:22;99782.19;;;-7.59;69.02
34374;BME280;20637;55.770;37.592;2024-01-10T08:59:48;99771.66;;;-7.58;68.73
34374;BME280;20637;55.770;37.592;2024-01-10T09:02:14;99780.91;;;-7.48;68.57
34374;BME280;20637;55.770;37.592;2024-01-10T09:04:39;99780.13;;;-7.50;68.16
34374;BME280;20637;55.770;37.592;2024-01-10T09:07:07;99788.34;;;-7.60;68.06
34374;BME280;20637;55.770;37.592;2024-01-10T09:09:32;99794.50;;;-7.61;68.61
34374;BME280;20637;55.770;37.592;2024-01-10T09:11:58;99797.13;;;-7.61;68.35
34374;BME280;20637;55.770;37.592;2024-01-10T09:14:23;99807.78;;;-7.67;67.78
34374;BME280;20637;55.770;37.592;2024-01-10T09:16:49;99814.13;;;-7.73;67.93
34374;BME280;20637;55.770;37.592;2024-01-10T09:19:14;99807.59;;;-7.61;68.55
34374;BME280;20637;55.770;37.592;2024-01-10T09:21:40;99815.91;;;-7.49;68.66
34374;BME280;20637;55.770;37.592;2024-01-10T09:24:06;99822.06;;;-7.50;68.83
34374;BME280;20637;55.770;37.592;2024-01-10T09:26:34;99817.72;;;-7.51;68.11
34374;BME280;20637;55.770;37.592;2024-01-10T09:28:59;99823.75;;;-7.49;67.89
34374;BME280;20637;55.770;37.592;2024-01-10T09:31:25;99827.22;;;-7.47;67.97
34374;BME280;20637;55.770;37.592;2024-01-10T09:33:51;99829.00;;;-7.49;68.35
34374;BME280;20637;55.770;37.592;2024-01-10T09:36:16;99822.88;;;-7.48;68.05
34374;BME280;20637;55.770;37.592;2024-01-10T09:38:42;99826.34;;;-7.47;68.11
34374;BME280;20637;55.770;37.592;2024-01-10T09:41:07;99831.28;;;-7.38;68.29
34374;BME280;20637;55.770;37.592;2024-01-10T09:43:33;99826.78;;;-7.35;68.38
34374;BME280;20637;55.770;37.592;2024-01-10T09:46:00;99835.72;;;-7.40;68.05
34374;BME280;20637;55.770;37.592;2024-01-10T09:48:26;99830.84;;;-7.51;67.34
34374;BME280;20637;55.770;37.592;2024-01-10T09:50:52;99823.22;;;-7.58;67.96
34374;BME280;20637;55.770;37.592;2024-01-10T09:53:22;99824.03;;;-7.56;67.54
34374;BME280;20637;55.770;37.592;2024-01-10T09:55:57;99831.34;;;-7.66;67.54
34374;BME280;20637;55.770;37.592;2024-01-10T09:58:26;99831.53;;;-7.72;67.75
34374;BME280;20637;55.770;37.592;2024-01-10T10:00:52;99827.47;;;-7.81;67.69
34374;BME280;20637;55.770;37.592;2024-01-10T10:03:18;99826.66;;;-7.83;67.85
34374;BME280;20637;55.770;37.592;2024-01-10T10:05:44;99830.25;;;-7.87;67.48
34374;BME280;20637;55.770;37.592;2024-01-10T10:08:11;99828.47;;;-7.85;67.18
34374;BME280;20637;55.770;37.592;2024-01-10T10:10:37;99824.00;;;-7.81;67.25
34374;BME280;20637;55.770;37.592;2024-01-10T10:13:10;99824.34;;;-7.65;67.35
34374;BME280;20637;55.770;37.592;2024-01-10T10:15:37;99819.50;;;-7.51;67.84
34374;BME280;20637;55.770;37.592;2024-01-10T10:18:03;99819.06;;;-7.39;67.36
34374;BME280;20637;55.770;37.592;2024-01-10T10:20:30;99839.53;;;-7.24;67.68
34374;BME280;20637;55.770;37.592;2024-01-10T10:23:05;99833.31;;;-7.22;67.50
34374;BME280;20637;55.770;37.592;2024-01-10T10:25:36;99824.44;;;-7.17;67.38
34374;BME280;20637;55.770;37.592;2024-01-10T10:28:04;99817.03;;;-7.06;67.48
34374;BME280;20637;55.770;37.592;2024-01-10T10:30:31;99820.25;;;-6.98;67.74
34374;BME280;20637;55.770;37.592;2024-01-10T10:32:57;99828.06;;;-6.97;66.78
34374;BME280;20637;55.770;37.592;2024-01-10T10:35:23;99830.13;;;-7.05;67.06
34374;BME280;20637;55.770;37.592;2024-01-10T10:37:49;99823.09;;;-7.04;66.82
34374;BME280;20637;55.770;37.592;2024-01-10T10:40:16;99824.06;;;-7.07;66.57
34374;BME280;20637;55.770;37.592;2024-01-10T10:42:47;99829.25;;;-7.05;66.74
34374;BME280;20637;55.770;37.592;2024-01-10T10:45:15;99826.50;;;-7.02;67.02
34374;BME280;20637;55.770;37.592;2024-01-10T10:47:43;99823.84;;;-7.01;67.05
34374;BME280;20637;55.770;37.592;2024-01-10T10:50:27;99826.75;;;-7.08;66.87
34374;BME280;20637;55.770;37.592;2024-01-10T10:52:54;99833.75;;;-7.09;66.72
34374;BME280;20637;55.770;37.592;2024-01-10T10:55:21;99832.09;;;-7.11;66.86
34374;BME280;20637;55.770;37.592;2024-01-10T10:57:49;99829.31;;;-7.07;66.69
34374;BME280;20637;55.770;37.592;2024-01-10T11:00:18;99827.66;;;-7.09;66.21
34374;BME280;20637;55.770;37.592;2024-01-10T11:02:44;99836.41;;;-7.10;66.51
34374;BME280;20637;55.770;37.592;2024-01-10T11:05:10;99818.06;;;-7.10;66.38
34374;BME280;20637;55.770;37.592;2024-01-10T11:07:41;99822.28;;;-7.06;66.19
34374;BME280;20637;55.770;37.592;2024-01-10T11:10:28;99820.63;;;-7.09;65.77
34374;BME280;20637;55.770;37.592;2024-01-10T11:18:51;99813.59;;;-7.07;66.64
34374;BME280;20637;55.770;37.592;2024-01-10T11:24:05;99827.88;;;-7.15;66.22
34374;BME280;20637;55.770;37.592;2024-01-10T11:26:32;99821.66;;;-7.13;66.16
34374;BME280;20637;55.770;37.592;2024-01-10T11:28:58;99826.78;;;-7.10;67.00
34374;BME280;20637;55.770;37.592;2024-01-10T11:31:30;99818.16;;;-7.13;65.89
34374;BME280;20637;55.770;37.592;2024-01-10T11:33:57;99818.13;;;-7.12;66.49
34374;BME280;20637;55.770;37.592;2024-01-10T11:36:23;99822.78;;;-7.20;65.90
34374;BME280;20637;55.770;37.592;2024-01-10T11:46:42;99823.72;;;-7.47;66.31
34374;BME280;20637;55.770;37.592;2024-01-10T11:49:13;99829.88;;;-7.48;65.76
34374;BME280;20637;55.770;37.592;2024-01-10T11:54:09;99830.63;;;-7.45;65.81
34374;BME280;20637;55.770;37.592;2024-01-10T11:56:39;99831.44;;;-7.43;65.84
34374;BME280;20637;55.770;37.592;2024-01-10T11:59:10;99837.47;;;-7.41;65.86
34374;BME280;20637;55.770;37.592;2024-01-10T12:01:41;99838.94;;;-7.32;66.43
34374;BME280;20637;55.770;37.592;2024-01-10T12:04:07;99831.94;;;-7.32;66.57
34374;BME280;20637;55.770;37.592;2024-01-10T12:06:35;99835.44;;;-7.33;66.13
34374;BME280;20637;55.770;37.592;2024-01-10T12:09:02;99831.81;;;-7.29;66.06
34374;BME280;20637;55.770;37.592;2024-01-10T12:11:41;99828.06;;;-7.22;66.09
34374;BME280;20637;55.770;37.592;2024-01-10T12:14:09;99823.50;;;-7.15;66.60
34374;BME280;20637;55.770;37.592;2024-01-10T12:16:35;99829.59;;;-7.14;66.51
34374;BME280;20637;55.770;37.592;2024-01-10T12:19:01;99832.16;;;-7.13;66.38
34374;BME280;20637;55.770;37.592;2024-01-10T12:21:26;99832.25;;;-7.16;66.17
34374;BME280;20637;55.770;37.592;2024-01-10T12:23:52;99829.78;;;-7.20;66.35
34374;BME280;20637;55.770;37.592;2024-01-10T12:26:18;99829.81;;;-7.22;66.18
34374;BME280;20637;55.770;37.592;2024-01-10T12:28:57;99823.69;;;-7.21;66.07
34374;BME280;20637;55.770;37.592;2024-01-10T12:31:27;99828.88;;;-7.19;66.51
34374;BME280;20637;55.770;37.592;2024-01-10T12:33:55;99828.28;;;-7.28;65.48
34374;BME280;20637;55.770;37.592;2024-01-10T12:36:20;99836.31;;;-7.32;65.93
34374;BME280;20637;55.770;37.592;2024-01-10T12:38:46;99823.44;;;-7.38;65.67
34374;BME280;20637;55.770;37.592;2024-01-10T12:41:14;99828.00;;;-7.45;65.97
34374;BME280;20637;55.770;37.592;2024-01-10T12:43:40;99827.09;;;-7.44;65.91
34374;BME280;20637;55.770;37.592;2024-01-10T12:46:12;99825.19;;;-7.39;65.94
34374;BME280;20637;55.770;37.592;2024-01-10T12:48:39;99822.69;;;-7.42;66.07
34374;BME280;20637;55.770;37.592;2024-01-10T12:51:09;99820.88;;;-7.41;65.86
34374;BME280;20637;55.770;37.592;2024-01-10T12:53:36;99817.69;;;-7.49;66.12
34374;BME280;20637;55.770;37.592;2024-01-10T12:56:03;99820.34;;;-7.51;65.49
34374;BME280;20637;55.770;37.592;2024-01-10T12:58:30;99822.06;;;-7.50;66.33
34374;BME280;20637;55.770;37.592;2024-01-10T13:00:55;99805.78;;;-7.59;66.19
34374;BME280;20637;55.770;37.592;2024-01-10T13:03:22;99803.31;;;-7.64;65.58
34374;BME280;20637;55.770;37.592;2024-01-10T13:05:47;99806.00;;;-7.65;66.31